Time;durP1;ratioP1;P1;durP2;ratioP2;P2;SDS_P1;SDS_P2;PMS_P1;PMS_P2;Temp;Humidity;BMP_temperature;BMP_pressure;BME280_temperature;BME280_humidity;BME280_pressure;Samples;Min_cycle;Max_cycle;Signal;HPM_P1;HPM_P2
2022/06/25 00:01:40;;;;;;;3.38;1.38;;;17.90;99.90;;;;;;5015712;28;20037;-79
2022/06/25 00:05:27;;;;;;;2.78;1.60;;;17.90;99.90;;;;;;5016099;28;20100;-79
2022/06/25 00:06:52;;;;;;;2.38;1.50;;;17.90;99.90;;;;;;5015686;28;20048;-80
2022/06/25 00:09:17;;;;;;;3.78;1.25;;;17.90;99.90;;;;;;5016113;28;20050;-78
2022/06/25 00:14:27;;;;;;;1.50;1.17;;;17.90;99.90;;;;;;5016592;28;20087;-81
2022/06/25 00:16:52;;;;;;;2.08;1.10;;;17.90;99.90;;;;;;5016586;28;20451;-81
2022/06/25 00:19:18;;;;;;;2.75;1.30;;;17.90;99.90;;;;;;5015910;28;20025;-80
2022/06/25 00:21:46;;;;;;;6.28;1.13;;;17.90;99.90;;;;;;5015916;28;20331;-81
2022/06/25 00:24:11;;;;;;;2.63;1.20;;;17.90;99.90;;;;;;4998241;28;20531;-79
2022/06/25 00:26:37;;;;;;;1.20;1.08;;;17.90;99.90;;;;;;5031789;28;20118;-79
2022/06/25 00:29:03;;;;;;;2.47;1.20;;;17.90;99.90;;;;;;5034036;28;20589;-79
2022/06/25 00:31:29;;;;;;;3.25;1.25;;;17.90;99.90;;;;;;5017621;28;20462;-79
2022/06/25 00:33:55;;;;;;;2.88;1.33;;;17.90;99.90;;;;;;5017353;28;20072;-80
2022/06/25 00:36:20;;;;;;;2.10;1.27;;;17.80;99.90;;;;;;5033779;28;20034;-82
2022/06/25 00:38:46;;;;;;;1.25;1.00;;;17.80;99.90;;;;;;5028940;28;20030;-88
2022/06/25 00:41:12;;;;;;;2.13;1.20;;;17.80;99.90;;;;;;5031249;28;20037;-85
2022/06/25 00:43:39;;;;;;;4.40;1.60;;;17.70;99.90;;;;;;5016006;28;20133;-84
2022/06/25 00:46:05;;;;;;;1.50;1.30;;;17.70;99.90;;;;;;5026238;28;20017;-84
2022/06/25 00:48:31;;;;;;;1.98;1.40;;;17.70;99.90;;;;;;5015720;28;20048;-85
2022/06/25 00:51:00;;;;;;;4.72;1.30;;;17.60;99.90;;;;;;5033720;28;20470;-83
2022/06/25 00:53:32;;;;;;;3.17;1.02;;;17.70;99.90;;;;;;5029245;28;20088;-83
2022/06/25 00:55:58;;;;;;;;;;;17.60;99.90;;;;;;5015210;28;20026;-84
2022/06/25 00:58:29;;;;;;;1.95;1.00;;;17.60;99.90;;;;;;5015138;28;19912;-84
2022/06/25 01:00:55;;;;;;;4.13;1.27;;;17.60;99.90;;;;;;5031895;28;20018;-84
2022/06/25 01:03:21;;;;;;;3.05;1.00;;;17.60;99.90;;;;;;5016261;28;20053;-86
2022/06/25 01:05:46;;;;;;;2.35;1.20;;;17.60;99.90;;;;;;5034365;28;20390;-87
2022/06/25 01:08:12;;;;;;;2.67;0.90;;;17.60;99.90;;;;;;5036081;28;20099;-83
2022/06/25 01:10:38;;;;;;;1.70;1.20;;;17.60;99.90;;;;;;5035908;28;20114;-83
2022/06/25 01:13:03;;;;;;;1.15;1.02;;;17.50;99.90;;;;;;5034166;28;20030;-83
2022/06/25 01:15:29;;;;;;;2.63;1.30;;;17.60;99.90;;;;;;5015053;28;20084;-84
2022/06/25 01:17:54;;;;;;;2.42;1.20;;;17.50;99.90;;;;;;5023221;28;20025;-84
2022/06/25 01:20:23;;;;;;;2.78;1.30;;;17.50;99.90;;;;;;5015907;28;20474;-85
2022/06/25 01:22:49;;;;;;;1.10;1.00;;;17.50;99.90;;;;;;5016976;28;20042;-86
2022/06/25 01:25:17;;;;;;;3.55;1.27;;;17.60;99.90;;;;;;5034861;28;20027;-85
2022/06/25 01:27:43;;;;;;;1.17;1.08;;;17.60;99.90;;;;;;5033043;28;20118;-79
2022/06/25 01:30:11;;;;;;;74.57;44.17;;;17.60;99.90;;;;;;5027567;28;20053;-78
2022/06/25 01:32:37;;;;;;;19.98;13.73;;;17.60;99.90;;;;;;5021486;28;20022;-82
2022/06/25 01:35:04;;;;;;;5.07;3.85;;;17.60;99.90;;;;;;5013188;28;20029;-83
2022/06/25 01:37:30;;;;;;;3.80;1.75;;;17.60;99.90;;;;;;4998084;28;20463;-83
2022/06/25 01:39:56;;;;;;;5.15;1.52;;;17.70;99.90;;;;;;5014868;28;20040;-82
2022/06/25 01:45:08;;;;;;;5.95;1.23;;;17.60;99.90;;;;;;5014772;28;20084;-83
2022/06/25 01:47:34;;;;;;;5.05;1.20;;;17.70;99.90;;;;;;4997888;28;20053;-82
2022/06/25 01:49:59;;;;;;;1.30;1.00;;;17.60;99.90;;;;;;5014933;28;20037;-82
2022/06/25 01:52:25;;;;;;;2.58;1.17;;;17.60;99.90;;;;;;5029720;28;20038;-82
2022/06/25 01:54:51;;;;;;;2.35;1.17;;;17.70;99.90;;;;;;5015325;28;20038;-83
2022/06/25 01:57:16;;;;;;;3.35;1.15;;;17.70;99.90;;;;;;5017237;28;20467;-88
2022/06/25 01:59:44;;;;;;;1.27;1.15;;;17.70;99.90;;;;;;5025625;28;20034;-86
2022/06/25 02:02:09;;;;;;;1.75;1.08;;;17.70;99.90;;;;;;5022937;28;20061;-82
2022/06/25 02:04:35;;;;;;;1.67;1.20;;;17.70;99.90;;;;;;5028871;28;20029;-85
2022/06/25 02:07:01;;;;;;;1.20;1.10;;;17.70;99.90;;;;;;5030812;28;20029;-87
2022/06/25 02:09:26;;;;;;;1.35;0.90;;;17.70;99.90;;;;;;5025564;28;20049;-87
2022/06/25 02:11:52;;;;;;;1.63;0.90;;;17.70;99.90;;;;;;5025724;28;20368;-85
2022/06/25 02:14:17;;;;;;;2.72;1.10;;;17.70;99.90;;;;;;5025098;28;20041;-85
2022/06/25 02:16:43;;;;;;;4.20;1.10;;;17.70;99.90;;;;;;5022285;28;20037;-88
2022/06/25 02:19:09;;;;;;;4.95;1.20;;;17.70;99.90;;;;;;5018740;28;20526;-84
2022/06/25 02:21:35;;;;;;;1.08;0.98;;;17.70;99.90;;;;;;5026758;28;20018;-83
2022/06/25 02:24:01;;;;;;;1.17;0.93;;;17.70;99.90;;;;;;5026673;28;20037;-84
2022/06/25 02:26:27;;;;;;;2.67;1.17;;;17.70;99.90;;;;;;5016237;28;20413;-83
2022/06/25 02:28:52;;;;;;;1.55;1.10;;;17.60;99.90;;;;;;5013900;28;20447;-83
2022/06/25 02:31:19;;;;;;;2.67;1.00;;;17.60;99.90;;;;;;5027716;28;20057;-81
2022/06/25 02:33:45;;;;;;;1.20;1.10;;;17.60;99.90;;;;;;5014500;28;20034;-82
2022/06/25 02:36:10;;;;;;;2.28;1.00;;;17.60;99.90;;;;;;5013964;28;20434;-80
2022/06/25 02:38:36;;;;;;;2.42;1.20;;;17.70;99.90;;;;;;5014147;28;20026;-80
2022/06/25 02:41:02;;;;;;;3.83;1.17;;;17.70;99.90;;;;;;5013589;28;20483;-80
2022/06/25 02:43:27;;;;;;;2.17;1.20;;;17.60;99.90;;;;;;5014038;28;20498;-80
2022/06/25 02:45:53;;;;;;;3.05;1.20;;;17.60;99.90;;;;;;5013479;28;20058;-81
2022/06/25 02:48:19;;;;;;;4.40;1.42;;;17.60;99.90;;;;;;5014033;28;20017;-81
2022/06/25 02:50:44;;;;;;;4.03;1.25;;;17.60;99.90;;;;;;5012498;28;20022;-85
2022/06/25 02:53:10;;;;;;;4.25;1.23;;;17.50;99.90;;;;;;5012849;28;20040;-82
2022/06/25 03:01:04;;;;;;;4.63;1.05;;;17.40;99.90;;;;;;5011069;28;20477;-80
2022/06/25 03:03:29;;;;;;;4.80;1.20;;;17.30;99.90;;;;;;5014033;28;20100;-80
2022/06/25 03:05:56;;;;;;;1.77;1.15;;;17.30;99.90;;;;;;4996087;28;20022;-80
2022/06/25 03:08:22;;;;;;;1.48;1.02;;;17.40;99.90;;;;;;4996385;28;20434;-81
2022/06/25 03:10:48;;;;;;;4.75;1.75;;;17.50;99.90;;;;;;4994403;28;20088;-81
2022/06/25 03:13:13;;;;;;;4.15;1.00;;;17.50;99.90;;;;;;4996348;28;20034;-80
2022/06/25 03:15:39;;;;;;;3.33;1.10;;;17.60;99.90;;;;;;5013918;28;20072;-80
2022/06/25 03:18:05;;;;;;;4.43;1.40;;;17.50;99.90;;;;;;5012068;28;20037;-80
2022/06/25 03:20:30;;;;;;;6.43;1.05;;;17.60;99.90;;;;;;4996377;28;20029;-81
2022/06/25 03:22:56;;;;;;;5.07;1.20;;;17.60;99.90;;;;;;4996016;28;20048;-83
2022/06/25 03:25:23;;;;;;;2.67;1.40;;;17.40;99.90;;;;;;5014206;28;20022;-82
2022/06/25 03:27:48;;;;;;;3.03;1.15;;;17.40;99.90;;;;;;4996246;28;20022;-83
2022/06/25 03:30:14;;;;;;;3.13;1.25;;;17.40;99.90;;;;;;5012819;28;20026;-82
2022/06/25 03:32:40;;;;;;;9.38;1.65;;;17.40;99.90;;;;;;4996450;28;20022;-83
2022/06/25 03:35:06;;;;;;;7.57;1.50;;;17.30;99.90;;;;;;5012100;28;20552;-82
2022/06/25 03:37:32;;;;;;;5.82;1.40;;;17.20;99.90;;;;;;5012816;28;20072;-82
2022/06/25 03:39:58;;;;;;;4.15;1.40;;;17.20;99.90;;;;;;5013486;28;20022;-82
2022/06/25 03:42:24;;;;;;;6.55;1.80;;;17.20;99.90;;;;;;4996585;28;20030;-82
2022/06/25 03:44:49;;;;;;;3.08;1.98;;;17.20;99.90;;;;;;5013516;28;20395;-81
2022/06/25 03:47:15;;;;;;;3.58;1.67;;;17.20;99.90;;;;;;5013415;28;20101;-81
2022/06/25 03:49:40;;;;;;;2.22;1.35;;;17.10;99.90;;;;;;4996326;28;20391;-81
2022/06/25 03:52:06;;;;;;;2.83;1.45;;;17.10;99.90;;;;;;5012613;28;20034;-80
2022/06/25 03:54:32;;;;;;;2.42;1.00;;;17.00;99.90;;;;;;5012146;28;20049;-81
2022/06/25 03:56:58;;;;;;;5.93;1.58;;;17.00;99.90;;;;;;5012018;28;20033;-81
2022/06/25 03:59:23;;;;;;;7.15;1.60;;;17.00;99.90;;;;;;5012065;28;20114;-81
2022/06/25 04:01:49;;;;;;;4.15;1.50;;;17.00;99.90;;;;;;5011938;28;20026;-85
2022/06/25 04:04:15;;;;;;;4.13;1.42;;;17.00;99.90;;;;;;4995661;28;20033;-81
2022/06/25 04:06:40;;;;;;;3.95;1.60;;;17.10;99.90;;;;;;5015570;28;20026;-81
2022/06/25 04:09:06;;;;;;;3.35;1.60;;;17.10;99.90;;;;;;4995809;28;20049;-81
2022/06/25 04:11:32;;;;;;;4.15;1.35;;;17.10;99.90;;;;;;5012876;28;20057;-80
2022/06/25 04:13:58;;;;;;;4.00;1.40;;;17.20;99.90;;;;;;5015410;28;20033;-81
2022/06/25 04:16:24;;;;;;;3.22;1.40;;;17.20;99.90;;;;;;4999772;28;20114;-81
2022/06/25 04:18:49;;;;;;;4.13;1.55;;;17.20;99.90;;;;;;5017017;28;20033;-84
2022/06/25 04:21:15;;;;;;;4.63;1.90;;;17.10;99.90;;;;;;5016934;28;20033;-81
2022/06/25 04:23:41;;;;;;;4.03;1.45;;;17.10;99.90;;;;;;5015423;28;20053;-81
2022/06/25 04:26:08;;;;;;;6.80;1.40;;;17.10;99.90;;;;;;5016261;28;20437;-81
2022/06/25 04:31:17;;;;;;;2.45;1.63;;;17.20;99.90;;;;;;5016503;28;20066;-81
2022/06/25 04:33:43;;;;;;;3.58;1.15;;;17.10;99.90;;;;;;5015161;28;20038;-81
2022/06/25 04:36:08;;;;;;;4.35;1.60;;;17.10;99.90;;;;;;4998553;28;20030;-81
2022/06/25 04:38:34;;;;;;;2.20;1.27;;;17.10;99.90;;;;;;5015268;28;20018;-81
2022/06/25 04:41:00;;;;;;;3.33;1.45;;;17.20;99.90;;;;;;5015760;28;20048;-81
2022/06/25 04:43:25;;;;;;;2.38;1.27;;;17.20;99.90;;;;;;4999300;28;20030;-80
2022/06/25 04:45:51;;;;;;;3.40;1.55;;;17.30;99.90;;;;;;5015258;28;20079;-82
2022/06/25 04:48:17;;;;;;;3.13;1.30;;;17.30;99.90;;;;;;5016120;28;20037;-81
2022/06/25 04:50:43;;;;;;;2.70;1.33;;;17.40;99.90;;;;;;5016424;28;20022;-81
2022/06/25 04:53:09;;;;;;;2.35;1.48;;;17.50;99.90;;;;;;4997823;28;20046;-82
2022/06/25 04:55:35;;;;;;;6.18;1.48;;;17.50;99.90;;;;;;4998983;28;20049;-81
2022/06/25 04:58:01;;;;;;;4.75;1.70;;;17.40;99.90;;;;;;5016485;28;20037;-81
2022/06/25 05:00:26;;;;;;;12.20;1.80;;;17.40;99.90;;;;;;5015593;28;20059;-80
2022/06/25 05:02:52;;;;;;;7.03;1.83;;;17.40;99.90;;;;;;5014833;28;20025;-82
2022/06/25 05:05:18;;;;;;;5.20;1.88;;;17.40;99.90;;;;;;5015660;28;20030;-80
2022/06/25 05:07:43;;;;;;;4.82;1.42;;;17.50;99.90;;;;;;5015703;28;20063;-80
2022/06/25 05:10:09;;;;;;;5.03;1.48;;;17.40;99.90;;;;;;4997104;28;20133;-80
2022/06/25 05:15:19;;;;;;;4.30;1.65;;;17.40;99.90;;;;;;5015572;28;20045;-80
2022/06/25 05:17:45;;;;;;;2.10;1.58;;;17.50;99.90;;;;;;4998425;28;20026;-80
2022/06/25 05:20:11;;;;;;;3.28;1.35;;;17.50;99.90;;;;;;5014533;28;20062;-80
2022/06/25 05:22:37;;;;;;;5.38;1.52;;;17.50;99.90;;;;;;5015587;28;20038;-80
2022/06/25 05:25:03;;;;;;;2.78;1.40;;;17.60;99.90;;;;;;5014219;28;20080;-80
2022/06/25 05:27:29;;;;;;;4.55;1.33;;;17.60;99.90;;;;;;4998165;28;20026;-79
2022/06/25 05:29:54;;;;;;;3.90;1.13;;;17.70;99.90;;;;;;5015524;28;20033;-82
2022/06/25 05:32:20;;;;;;;2.22;0.95;;;17.70;99.90;;;;;;5014003;28;20030;-80
2022/06/25 05:34:45;;;;;;;1.65;1.15;;;17.80;99.90;;;;;;5015090;28;20033;-81
2022/06/25 05:37:11;;;;;;;3.55;1.05;;;17.90;99.90;;;;;;5013746;28;20049;-82
2022/06/25 05:39:37;;;;;;;1.58;1.08;;;18.00;99.90;;;;;;5015543;28;20030;-82
2022/06/25 05:42:03;;;;;;;3.20;1.00;;;18.00;99.90;;;;;;5014178;28;20379;-82
2022/06/25 05:44:29;;;;;;;2.40;0.98;;;18.00;99.90;;;;;;5014138;28;20026;-82
2022/06/25 05:46:55;;;;;;;3.00;1.20;;;17.90;99.90;;;;;;4998049;28;20033;-82
2022/06/25 05:49:20;;;;;;;2.95;1.00;;;18.00;99.90;;;;;;5014110;28;20048;-82
2022/06/25 05:51:46;;;;;;;1.20;0.85;;;18.00;99.90;;;;;;5014145;28;20036;-83
2022/06/25 05:54:12;;;;;;;2.92;1.00;;;18.00;99.90;;;;;;5017467;28;20482;-82
2022/06/25 05:56:37;;;;;;;2.05;0.80;;;18.20;99.90;;;;;;5026056;28;20075;-82
2022/06/25 05:59:03;;;;;;;1.27;0.80;;;18.20;99.90;;;;;;5028593;28;20036;-82
2022/06/25 06:01:29;;;;;;;1.02;0.90;;;18.20;99.90;;;;;;5022415;28;20061;-80
2022/06/25 06:03:54;;;;;;;2.92;0.80;;;18.10;99.90;;;;;;5016544;28;20490;-80
2022/06/25 06:06:20;;;;;;;2.53;1.05;;;18.20;99.90;;;;;;5014087;28;20026;-81
2022/06/25 06:08:45;;;;;;;0.88;0.80;;;18.30;99.90;;;;;;5014772;28;20454;-81
2022/06/25 06:11:11;;;;;;;1.85;0.77;;;18.30;99.90;;;;;;5014293;28;20022;-79
2022/06/25 06:13:37;;;;;;;3.20;0.80;;;18.40;99.90;;;;;;5012290;28;20060;-81
2022/06/25 06:16:02;;;;;;;4.43;0.88;;;18.40;99.90;;;;;;5016236;28;20100;-81
2022/06/25 06:18:28;;;;;;;1.17;0.80;;;18.50;99.90;;;;;;5031429;28;20029;-80
2022/06/25 06:20:54;;;;;;;3.50;0.63;;;18.50;99.90;;;;;;5033433;28;20017;-81
2022/06/25 06:23:19;;;;;;;2.42;0.60;;;18.60;99.90;;;;;;5033271;28;20308;-81
2022/06/25 06:25:45;;;;;;;0.60;0.60;;;18.60;99.90;;;;;;5015866;28;20030;-82
2022/06/25 06:28:10;;;;;;;1.80;0.70;;;18.70;99.90;;;;;;5015929;28;20122;-81
2022/06/25 06:30:36;;;;;;;2.13;0.70;;;18.70;99.90;;;;;;5034439;28;20029;-81
2022/06/25 06:33:02;;;;;;;1.98;0.70;;;18.70;99.90;;;;;;5033844;28;20029;-82
2022/06/25 06:35:27;;;;;;;1.75;0.60;;;18.70;99.90;;;;;;5034099;28;20065;-81
2022/06/25 06:37:53;;;;;;;1.83;0.60;;;18.80;99.90;;;;;;5032724;28;20116;-80
2022/06/25 06:40:18;;;;;;;1.85;0.70;;;18.80;99.90;;;;;;5020662;28;20604;-80
2022/06/25 06:42:44;;;;;;;1.48;0.60;;;18.80;99.90;;;;;;5021444;28;20133;-80
2022/06/25 06:45:10;;;;;;;1.95;0.60;;;18.80;99.90;;;;;;5032070;28;20105;-80
2022/06/25 06:47:35;;;;;;;0.90;0.60;;;18.90;99.90;;;;;;5033498;28;20021;-78
2022/06/25 06:50:01;;;;;;;1.38;0.70;;;18.90;99.90;;;;;;5032070;28;20524;-80
2022/06/25 06:52:27;;;;;;;1.60;0.60;;;19.00;99.90;;;;;;5032287;28;20574;-80
2022/06/25 06:54:53;;;;;;;3.90;0.63;;;19.10;99.90;;;;;;5032195;28;20470;-81
2022/06/25 06:57:19;;;;;;;1.95;0.50;;;19.20;99.90;;;;;;5032751;28;20036;-80
2022/06/25 06:59:44;;;;;;;1.50;0.70;;;19.20;99.90;;;;;;5032328;28;20029;-80
2022/06/25 07:02:10;;;;;;;0.75;0.70;;;19.30;99.90;;;;;;5031730;28;20085;-82
2022/06/25 07:04:36;;;;;;;4.35;0.60;;;19.40;99.90;;;;;;5013028;28;20030;-81
2022/06/25 07:07:02;;;;;;;1.17;0.55;;;19.40;99.90;;;;;;5032896;28;20026;-81
2022/06/25 07:09:27;;;;;;;1.17;0.50;;;19.50;99.90;;;;;;5031756;28;20081;-81
2022/06/25 07:11:53;;;;;;;2.88;0.57;;;19.50;99.90;;;;;;5032175;28;20029;-80
2022/06/25 07:14:18;;;;;;;1.38;0.50;;;19.60;99.90;;;;;;5031597;28;20507;-80
2022/06/25 07:16:44;;;;;;;3.33;0.90;;;19.70;99.90;;;;;;5032194;28;20076;-79
2022/06/25 07:19:12;;;;;;;1.35;0.75;;;19.70;99.90;;;;;;5031479;28;20103;-80
2022/06/25 07:21:38;;;;;;;3.17;1.27;;;19.70;99.90;;;;;;5033125;28;20026;-80
2022/06/25 07:24:04;;;;;;;3.08;1.00;;;19.70;99.90;;;;;;5032058;28;20087;-83
2022/06/25 07:26:30;;;;;;;1.30;0.70;;;19.70;99.90;;;;;;5033761;28;20108;-81
2022/06/25 07:28:55;;;;;;;3.97;0.70;;;19.80;99.90;;;;;;5033501;28;20109;-81
2022/06/25 07:31:22;;;;;;;2.63;0.70;;;19.70;99.90;;;;;;5027869;28;20515;-81
2022/06/25 07:33:48;;;;;;;1.55;0.55;;;19.70;99.90;;;;;;5028974;28;20040;-80
2022/06/25 07:36:13;;;;;;;1.25;0.60;;;19.70;99.90;;;;;;5024866;28;20122;-82
2022/06/25 07:38:39;;;;;;;38.80;22.30;;;19.70;99.90;;;;;;5031912;28;20068;-80
2022/06/25 07:41:05;;;;;;;4.97;3.40;;;19.70;99.90;;;;;;5035309;28;20470;-81
2022/06/25 07:43:32;;;;;;;2.95;1.50;;;19.70;99.90;;;;;;5033738;28;20525;-79
2022/06/25 07:45:58;;;;;;;1.35;1.00;;;19.80;99.90;;;;;;5019587;28;20040;-80
2022/06/25 07:48:24;;;;;;;2.78;0.70;;;19.90;99.90;;;;;;5019028;28;20022;-81
2022/06/25 07:53:34;;;;;;;0.85;0.57;;;20.00;99.90;;;;;;5037461;28;20100;-81
2022/06/25 07:56:00;;;;;;;1.08;0.60;;;20.00;99.90;;;;;;5019524;28;20030;-82
2022/06/25 07:58:26;;;;;;;1.23;0.40;;;20.10;99.90;;;;;;5036118;28;20112;-81
2022/06/25 08:00:52;;;;;;;0.77;0.50;;;20.10;99.90;;;;;;5016782;28;20032;-82
2022/06/25 08:03:18;;;;;;;2.20;0.65;;;20.10;99.90;;;;;;5015410;28;20026;-82
2022/06/25 08:05:46;;;;;;;1.33;0.52;;;20.10;99.90;;;;;;5019407;28;20068;-82
2022/06/25 08:08:12;;;;;;;2.75;0.75;;;20.00;99.90;;;;;;5035366;28;20028;-81
2022/06/25 08:10:38;;;;;;;0.80;0.60;;;20.10;99.90;;;;;;5036445;28;20041;-82
2022/06/25 08:13:04;;;;;;;2.92;0.93;;;20.00;99.90;;;;;;5035357;28;20025;-81
2022/06/25 08:15:30;;;;;;;1.25;0.47;;;20.00;99.90;;;;;;5035930;28;20021;-81
2022/06/25 08:17:55;;;;;;;2.13;0.75;;;20.10;99.90;;;;;;5036126;28;20104;-82
2022/06/25 08:20:21;;;;;;;1.67;0.80;;;20.20;99.90;;;;;;5035023;28;20024;-80
2022/06/25 08:22:46;;;;;;;1.20;0.68;;;20.20;99.90;;;;;;5036159;28;20045;-82
2022/06/25 08:25:12;;;;;;;2.58;0.73;;;20.40;99.90;;;;;;5017918;28;20057;-81
2022/06/25 08:27:51;;;;;;;1.95;0.90;;;20.50;99.90;;;;;;5015408;28;20459;-82
2022/06/25 08:30:18;;;;;;;1.60;0.98;;;20.50;99.90;;;;;;5033742;28;20029;-83
2022/06/25 08:32:44;;;;;;;1.00;0.73;;;20.50;99.90;;;;;;5034625;28;20068;-81
2022/06/25 08:35:10;;;;;;;0.93;0.60;;;20.60;99.90;;;;;;5028996;28;20069;-81
2022/06/25 08:37:37;;;;;;;1.27;0.80;;;20.60;99.90;;;;;;5031845;28;20087;-83
2022/06/25 08:40:04;;;;;;;10.52;5.72;;;20.60;99.90;;;;;;5029680;28;20030;-85
2022/06/25 08:42:30;;;;;;;8.77;5.43;;;20.70;99.90;;;;;;5025196;28;20025;-81
2022/06/25 08:44:56;;;;;;;13.43;7.72;;;20.80;99.90;;;;;;5033482;28;20029;-81
2022/06/25 08:47:21;;;;;;;1.92;1.55;;;20.90;99.90;;;;;;5031305;28;20640;-82
2022/06/25 08:49:47;;;;;;;1.73;1.00;;;21.10;99.90;;;;;;5022480;28;20462;-82
2022/06/25 08:52:14;;;;;;;3.03;0.75;;;21.20;99.90;;;;;;5023820;28;20040;-82
2022/06/25 08:54:40;;;;;;;4.78;1.15;;;21.20;99.90;;;;;;5024773;28;20501;-81
2022/06/25 08:57:08;;;;;;;1.85;0.90;;;21.20;99.90;;;;;;5042757;28;20493;-80
2022/06/25 08:59:34;;;;;;;1.40;0.80;;;21.20;99.90;;;;;;5028605;28;20035;-82
2022/06/25 09:02:00;;;;;;;1.52;1.10;;;21.20;99.90;;;;;;5030399;28;20033;-85
2022/06/25 09:04:26;;;;;;;1.33;0.93;;;21.30;99.90;;;;;;5020793;28;20033;-82
2022/06/25 09:07:11;;;;;;;2.45;0.80;;;21.30;99.90;;;;;;5035694;28;20033;-81
2022/06/25 09:09:38;;;;;;;1.38;0.80;;;21.30;99.90;;;;;;5022923;28;20046;-81
2022/06/25 09:12:08;;;;;;;4.32;0.88;;;21.30;99.90;;;;;;5024737;28;20386;-80
2022/06/25 09:14:35;;;;;;;1.60;0.80;;;21.40;99.90;;;;;;5032749;28;20471;-80
2022/06/25 09:17:12;;;;;;;2.55;1.05;;;21.40;99.90;;;;;;5015434;28;20030;-84
2022/06/25 09:19:42;;;;;;;1.20;0.68;;;21.50;99.90;;;;;;5010057;28;20072;-79
2022/06/25 09:22:19;;;;;;;2.00;0.75;;;21.40;99.90;;;;;;5027242;28;20029;-80
2022/06/25 09:24:57;;;;;;;2.75;0.70;;;21.40;99.90;;;;;;5023915;28;20482;-79
2022/06/25 09:27:33;;;;;;;1.38;0.60;;;21.40;99.90;;;;;;5031482;28;20021;-79
2022/06/25 09:30:06;;;;;;;1.35;0.73;;;21.60;99.90;;;;;;5029093;28;20040;-79
2022/06/25 09:33:00;;;;;;;2.60;0.90;;;21.60;99.90;;;;;;5011434;28;20084;-85
2022/06/25 09:35:37;;;;;;;1.98;0.90;;;21.50;99.90;;;;;;5005004;28;20486;-82
2022/06/25 09:38:11;;;;;;;12.82;7.95;;;21.50;99.90;;;;;;5018792;28;20474;-84
2022/06/25 09:40:38;;;;;;;3.90;2.25;;;21.50;99.90;;;;;;5024004;28;20026;-83
2022/06/25 09:43:15;;;;;;;1.40;1.30;;;21.50;99.90;;;;;;4997561;28;20080;-86
2022/06/25 09:45:51;;;;;;;1.63;0.88;;;21.60;99.90;;;;;;5002009;28;20052;-81
2022/06/25 09:48:25;;;;;;;0.88;0.73;;;21.70;99.90;;;;;;5032860;28;20030;-80
2022/06/25 09:51:15;;;;;;;2.03;0.82;;;21.80;99.90;;;;;;5015491;28;20570;-80
2022/06/25 09:53:51;;;;;;;2.42;0.80;;;21.80;99.90;;;;;;4998532;28;20046;-82
2022/06/25 09:56:23;;;;;;;1.50;0.70;;;21.80;99.90;;;;;;5027655;28;20026;-82
2022/06/25 09:58:49;;;;;;;1.15;0.70;;;21.80;99.90;;;;;;5030282;28;20034;-79
2022/06/25 10:01:18;;;;;;;1.15;0.80;;;21.80;99.90;;;;;;5026181;28;20047;-84
2022/06/25 10:03:44;;;;;;;1.02;0.70;;;21.90;99.90;;;;;;5028457;28;20059;-85
2022/06/25 10:06:14;;;;;;;1.02;0.70;;;22.00;99.90;;;;;;5025876;28;20021;-86
2022/06/25 10:08:44;;;;;;;1.08;0.75;;;22.10;99.90;;;;;;5013571;28;20029;-88
2022/06/25 10:11:10;;;;;;;0.80;0.77;;;22.20;99.90;;;;;;5029931;28;20032;-91
2022/06/25 10:13:36;;;;;;;0.68;0.63;;;22.20;99.90;;;;;;5031557;28;20431;-84
2022/06/25 10:16:02;;;;;;;2.70;0.82;;;22.30;99.90;;;;;;5024979;28;20108;-85
2022/06/25 10:18:28;;;;;;;1.98;0.70;;;22.30;99.90;;;;;;5023071;28;20045;-84
2022/06/25 10:20:55;;;;;;;1.65;0.68;;;22.30;99.90;;;;;;5031918;28;20471;-84
2022/06/25 10:23:21;;;;;;;1.92;0.70;;;22.40;99.90;;;;;;5030822;28;20037;-81
2022/06/25 10:25:48;;;;;;;1.73;1.00;;;22.50;99.90;;;;;;5034475;28;20040;-82
2022/06/25 10:28:15;;;;;;;2.65;0.80;;;22.70;99.90;;;;;;5023243;28;20029;-79
2022/06/25 10:30:58;;;;;;;3.38;0.70;;;22.80;99.90;;;;;;5020358;28;20026;-78
2022/06/25 10:33:27;;;;;;;1.95;1.00;;;22.80;99.90;;;;;;5015857;28;20026;-79
2022/06/25 10:35:58;;;;;;;1.02;0.70;;;22.80;99.90;;;;;;5021422;28;20032;-78
2022/06/25 10:38:26;;;;;;;2.60;0.80;;;22.70;99.90;;;;;;5013889;28;20088;-80
2022/06/25 10:40:58;;;;;;;1.23;0.80;;;22.70;99.90;;;;;;4996845;28;20030;-80
2022/06/25 10:43:50;;;;;;;0.93;0.73;;;22.80;99.90;;;;;;5015770;28;20025;-80
2022/06/25 10:46:19;;;;;;;3.95;0.90;;;23.00;99.90;;;;;;5011646;28;20068;-81
2022/06/25 10:49:06;;;;;;;2.67;0.60;;;23.00;99.90;;;;;;5032836;28;20052;-80
2022/06/25 10:51:32;;;;;;;1.60;0.60;;;23.00;99.90;;;;;;5016432;28;20032;-79
2022/06/25 10:54:00;;;;;;;2.65;0.77;;;22.90;99.90;;;;;;5033162;28;20124;-80
2022/06/25 10:56:26;;;;;;;1.42;0.77;;;22.90;99.90;;;;;;5031963;28;20032;-80
2022/06/25 10:58:52;;;;;;;1.17;0.80;;;23.00;99.90;;;;;;5032630;28;20021;-80
2022/06/25 11:01:24;;;;;;;1.30;0.70;;;23.00;99.90;;;;;;5031975;28;20037;-80
2022/06/25 11:03:59;;;;;;;;;;;23.00;99.90;;;;;;5032766;28;20036;-81
2022/06/25 11:06:29;;;;;;;2.17;0.90;;;22.90;99.90;;;;;;5027068;28;19902;-82
2022/06/25 11:09:03;;;;;;;1.13;0.77;;;23.10;99.90;;;;;;5012730;28;20026;-81
2022/06/25 11:11:31;;;;;;;3.42;0.90;;;23.20;99.90;;;;;;5012561;28;20026;-81
2022/06/25 11:13:58;;;;;;;1.30;0.80;;;23.30;99.90;;;;;;5012522;28;20041;-82
2022/06/25 11:16:24;;;;;;;1.42;0.88;;;23.20;99.60;;;;;;5027723;28;20030;-82
2022/06/25 11:19:00;;;;;;;3.20;0.95;;;23.10;99.40;;;;;;5032411;28;20546;-81
2022/06/25 11:21:31;;;;;;;1.80;0.90;;;23.10;99.40;;;;;;5015582;28;20161;-81
2022/06/25 11:24:23;;;;;;;3.47;0.80;;;23.10;99.50;;;;;;5026928;28;20112;-79
2022/06/25 11:29:38;;;;;;;1.92;1.00;;;23.10;99.80;;;;;;5033301;28;20586;-82
2022/06/25 11:32:05;;;;;;;0.77;0.70;;;23.10;99.60;;;;;;5015486;28;20036;-82
2022/06/25 11:34:31;;;;;;;0.65;0.65;;;23.20;99.20;;;;;;5030522;28;20033;-79
2022/06/25 11:37:02;;;;;;;2.28;0.70;;;23.20;99.70;;;;;;5020831;28;20022;-79
2022/06/25 11:39:29;;;;;;;1.20;0.80;;;23.30;99.40;;;;;;5024069;28;20034;-79
2022/06/25 11:41:55;;;;;;;1.20;0.80;;;23.40;99.40;;;;;;5026845;28;20470;-88
2022/06/25 11:44:21;;;;;;;2.70;0.90;;;23.50;99.90;;;;;;5047789;28;20044;-87
2022/06/25 11:46:48;;;;;;;2.65;0.95;;;23.60;99.90;;;;;;5031317;28;20218;-79
2022/06/25 11:49:14;;;;;;;1.20;0.82;;;23.80;99.50;;;;;;5023559;28;20168;-78
2022/06/25 11:51:48;;;;;;;123.80;77.13;;;23.80;99.80;;;;;;5025151;28;20108;-76
2022/06/25 11:54:16;;;;;;;14.65;10.38;;;23.80;99.10;;;;;;5011064;28;20405;-80
2022/06/25 11:56:53;;;;;;;4.05;3.17;;;23.90;99.90;;;;;;5030950;28;20037;-80
2022/06/25 11:59:28;;;;;;;2.95;1.90;;;24.10;99.90;;;;;;5024907;28;20029;-80
2022/06/25 12:01:54;;;;;;;2.92;1.35;;;24.10;99.70;;;;;;5032543;28;20028;-79
2022/06/25 12:04:20;;;;;;;1.45;0.90;;;24.10;99.60;;;;;;5035193;28;20037;-79
2022/06/25 12:06:48;;;;;;;2.38;1.45;;;24.10;98.30;;;;;;5015370;28;20033;-80
2022/06/25 12:09:16;;;;;;;2.50;1.25;;;24.10;98.80;;;;;;5029485;28;20050;-79
2022/06/25 12:11:51;;;;;;;0.88;0.77;;;24.30;99.40;;;;;;5041762;28;20120;-79
2022/06/25 12:14:18;;;;;;;4.60;0.85;;;24.30;98.70;;;;;;5028481;28;20030;-80
2022/06/25 12:16:46;;;;;;;0.75;0.65;;;24.50;98.90;;;;;;5028554;28;20029;-79
2022/06/25 12:19:12;;;;;;;1.20;0.88;;;24.70;97.10;;;;;;4994892;28;20049;-79
2022/06/25 12:21:38;;;;;;;1.08;0.98;;;25.00;96.70;;;;;;5017304;28;20065;-80
2022/06/25 12:24:06;;;;;;;1.13;1.02;;;25.20;95.70;;;;;;5030334;28;20188;-79
2022/06/25 12:26:36;;;;;;;1.25;1.00;;;25.10;96.80;;;;;;5016475;28;20486;-79
2022/06/25 12:29:17;;;;;;;0.80;0.60;;;25.10;96.70;;;;;;5033306;28;20033;-79
2022/06/25 12:31:51;;;;;;;1.57;1.00;;;25.00;96.70;;;;;;5036008;28;20025;-79
2022/06/25 12:34:17;;;;;;;1.98;0.80;;;25.00;97.90;;;;;;5035363;28;20739;-79
2022/06/25 12:36:43;;;;;;;1.52;0.80;;;25.00;97.30;;;;;;5035315;28;20032;-80
2022/06/25 12:39:44;;;;;;;2.83;1.08;;;25.10;97.50;;;;;;5015615;28;20034;-84
2022/06/25 12:42:13;;;;;;;1.02;0.70;;;25.10;96.40;;;;;;5000433;28;20029;-81
2022/06/25 12:44:41;;;;;;;1.20;0.70;;;25.20;96.70;;;;;;5028394;28;20060;-80
2022/06/25 12:47:14;;;;;;;2.35;0.90;;;25.40;96.00;;;;;;5026593;28;20029;-85
2022/06/25 12:49:57;;;;;;;3.30;1.00;;;25.40;95.90;;;;;;5016990;28;20045;-85
2022/06/25 12:52:34;;;;;;;1.75;0.93;;;25.40;95.30;;;;;;5012697;28;20037;-83
2022/06/25 12:55:00;;;;;;;1.20;1.00;;;25.40;95.80;;;;;;5014709;28;20095;-83
2022/06/25 12:57:29;;;;;;;1.40;0.90;;;25.20;94.70;;;;;;5014176;28;20487;-80
2022/06/25 12:59:56;;;;;;;1.10;0.98;;;25.20;94.10;;;;;;5017506;28;20034;-81
2022/06/25 13:02:23;;;;;;;1.55;0.70;;;25.50;93.80;;;;;;5016755;28;20026;-80
2022/06/25 13:04:49;;;;;;;2.05;0.80;;;25.80;93.30;;;;;;5014521;28;20037;-81
2022/06/25 13:07:15;;;;;;;1.55;0.80;;;26.00;92.80;;;;;;5013896;28;20519;-77
2022/06/25 13:09:43;;;;;;;0.77;0.77;;;26.30;92.10;;;;;;5032227;28;20128;-80
2022/06/25 13:12:09;;;;;;;1.33;0.68;;;26.50;91.40;;;;;;5032364;28;20095;-82